createdAt,value
2023-05-22T00:01:26.244Z,48.33
2023-05-22T00:06:25.512Z,48.43
2023-05-22T00:11:24.847Z,48.23
2023-05-22T00:16:26.122Z,47.53
2023-05-22T00:21:24.373Z,47.14
2023-05-22T00:26:23.562Z,47.33
2023-05-22T00:31:22.804Z,47.53
2023-05-22T00:36:22.047Z,47.53
2023-05-22T00:41:20.262Z,47.93
2023-05-22T00:46:19.538Z,47.53
2023-05-22T00:51:19.779Z,46.36
2023-05-22T00:56:19.011Z,46.26
2023-05-22T01:01:16.271Z,45.09
2023-05-22T01:06:16.492Z,46.76
2023-05-22T01:11:15.733Z,46.26
2023-05-22T01:16:15.009Z,46.86
2023-05-22T01:21:14.232Z,47.16
2023-05-22T01:26:14.490Z,45.36
2023-05-22T01:31:12.725Z,44.87
2023-05-22T01:36:11.965Z,46.38
2023-05-22T01:41:13.167Z,46.48
2023-05-22T01:46:11.434Z,46.58
2023-05-22T01:51:09.661Z,47.08
2023-05-22T01:56:08.869Z,46.58
2023-05-22T02:01:08.125Z,46.48
2023-05-22T02:06:07.378Z,47.18
2023-05-22T02:11:07.572Z,46.48
2023-05-22T02:16:06.800Z,46.78
2023-05-22T02:21:06.031Z,46.78
2023-05-22T02:26:06.253Z,47.10
2023-05-22T02:31:03.524Z,47.33
2023-05-22T02:36:03.657Z,47.13
2023-05-22T02:41:01.890Z,47.53
2023-05-22T02:46:01.364Z,47.35
2023-05-22T02:51:01.523Z,47.87
2023-05-22T02:55:59.733Z,47.97
2023-05-22T03:00:58.980Z,47.97
2023-05-22T03:05:59.253Z,47.27
2023-05-22T03:10:57.473Z,47.77
2023-05-22T03:15:58.743Z,47.97
2023-05-22T03:20:56.066Z,47.45
2023-05-22T20:36:50.782Z,43.90
2023-05-22T20:41:50.087Z,44.22
2023-05-22T20:46:48.299Z,42.03
2023-05-22T20:51:48.318Z,42.85
2023-05-22T20:56:48.584Z,41.87
2023-05-22T21:01:47.639Z,43.68
2023-05-22T21:06:46.914Z,44.62
2023-05-22T21:11:46.164Z,45.52
2023-05-22T21:16:47.470Z,48.11
2023-05-22T21:21:43.702Z,46.79
2023-05-22T21:26:42.959Z,47.31
2023-05-22T21:31:42.193Z,46.73
2023-05-22T21:36:43.404Z,47.10
2023-05-22T21:41:40.638Z,47.10
2023-05-22T21:46:39.908Z,47.38
2023-05-22T21:51:39.121Z,47.08
2023-05-22T21:56:40.316Z,48.58
2023-05-22T22:01:38.541Z,48.48
2023-05-22T22:06:38.744Z,49.65
2023-05-22T22:11:36.961Z,49.15
2023-05-22T22:16:37.224Z,49.03
2023-05-22T22:21:34.435Z,46.42
2023-05-22T22:26:35.727Z,47.36
2023-05-22T22:31:33.994Z,48.38
2023-05-22T22:36:32.210Z,48.80
2023-05-22T22:41:31.492Z,49.95
2023-05-22T22:46:30.762Z,50.04
2023-05-22T22:51:30.984Z,51.29
2023-05-22T22:56:29.442Z,50.40
2023-05-22T23:01:29.508Z,50.95
2023-05-22T23:06:27.739Z,51.75
2023-05-22T23:11:29.018Z,51.84
2023-05-22T23:16:26.297Z,52.77
2023-05-22T23:21:25.458Z,52.55
2023-05-22T23:26:23.744Z,52.84
2023-05-22T23:31:24.064Z,53.17
2023-05-22T23:36:24.316Z,52.94
2023-05-22T23:41:22.552Z,53.37
2023-05-22T23:46:21.842Z,52.64
2023-05-22T23:51:22.098Z,49.93
2023-05-22T23:56:20.309Z,49.01
